Time;durP1;ratioP1;P1;durP2;ratioP2;P2;SDS_P1;SDS_P2;PMS_P1;PMS_P2;Temp;Humidity;BMP_temperature;BMP_pressure;BME280_temperature;BME280_humidity;BME280_pressure;Samples;Min_cycle;Max_cycle;Signal;HPM_P1;HPM_P2
2022/01/27 00:04:51;;;;;;;28.60;13.57;;;;;;;0.75;80.70;100119.88;4950529;29;20507;-82
2022/01/27 00:07:17;;;;;;;26.13;12.90;;;;;;;0.93;79.87;100141.53;4934326;29;20427;-82
2022/01/27 00:09:49;;;;;;;25.83;11.77;;;;;;;0.93;80.13;100144.03;4950508;29;20814;-81
2022/01/27 00:12:18;;;;;;;24.50;12.27;;;;;;;0.28;79.47;99995.91;4934315;29;20201;-82
2022/01/27 00:14:46;;;;;;;27.40;12.80;;;;;;;1.07;79.84;100148.69;4950198;29;21036;-82
2022/01/27 00:17:15;;;;;;;37.33;17.60;;;;;;;0.49;79.84;100052.72;4950280;29;20921;-81
2022/01/27 00:19:42;;;;;;;30.33;13.90;;;;;;;1.20;79.15;100154.03;4950801;29;20553;-82
2022/01/27 00:22:07;;;;;;;33.10;13.77;;;;;;;0.51;79.67;100029.69;4950235;29;20423;-81
2022/01/27 00:24:36;;;;;;;35.03;15.30;;;;;;;0.30;78.98;99997.81;4978679;28;20421;-81
2022/01/27 00:27:01;;;;;;;34.80;16.53;;;;;;;1.29;79.52;100157.38;5011160;28;20256;-81
2022/01/27 00:29:27;;;;;;;43.20;18.23;;;;;;;1.15;80.23;100150.25;5014817;28;20496;-81
2022/01/27 00:31:52;;;;;;;31.80;15.67;;;;;;;0.66;80.40;100049.28;5014614;28;20174;-81
2022/01/27 00:34:18;;;;;;;29.37;12.87;;;;;;;0.50;80.90;100030.44;5014355;28;20269;-81
2022/01/27 00:36:43;;;;;;;28.43;13.57;;;;;;;0.91;81.29;100089.03;5014891;28;20174;-81
2022/01/27 00:39:09;;;;;;;38.97;17.33;;;;;;;1.24;81.76;100140.25;5029724;28;20821;-81
2022/01/27 00:41:34;;;;;;;177.90;63.13;;;;;;;1.23;80.94;100114.44;5013858;28;20167;-83
2022/01/27 00:44:01;;;;;;;81.60;35.17;;;;;;;0.68;80.29;99988.03;5014672;28;20181;-81
2022/01/27 00:46:27;;;;;;;58.00;26.37;;;;;;;0.04;79.76;99869.22;5013817;28;20687;-81
2022/01/27 00:48:52;;;;;;;59.43;28.23;;;;;;;1.45;80.03;100115.63;5013906;28;20517;-82
2022/01/27 00:51:26;;;;;;;36.90;17.93;;;;;;;0.69;81.19;99990.63;5013929;28;20375;-81
2022/01/27 00:54:05;;;;;;;29.77;16.00;;;;;;;1.59;80.34;100126.84;5012549;28;20186;-81
2022/01/27 00:56:48;;;;;;;36.47;14.73;;;;;;;1.05;80.34;100051.28;5014655;28;20948;-81
2022/01/27 01:02:05;;;;;;;29.13;12.97;;;;;;;-0.10;79.79;99825.66;5013977;28;20801;-82
2022/01/27 01:04:35;;;;;;;33.77;15.37;;;;;;;1.79;79.16;100124.50;5013947;28;20515;-81
2022/01/27 01:07:01;;;;;;;32.07;12.60;;;;;;;0.94;78.64;99967.19;5015784;28;20396;-82
2022/01/27 01:14:57;;;;;;;22.60;10.87;;;;;;;1.82;78.75;100107.31;5015289;28;20412;-82
2022/01/27 01:17:40;;;;;;;29.40;12.60;;;;;;;1.85;78.43;100100.09;5015218;28;20479;-82
2022/01/27 01:20:24;;;;;;;25.57;12.37;;;;;;;1.58;78.02;100043.63;5015435;28;20438;-82
2022/01/27 01:31:16;;;;;;;28.63;12.17;;;;;;;1.90;77.62;100102.97;5015202;28;20484;-81
2022/01/27 01:33:43;;;;;;;25.63;11.80;;;;;;;1.96;77.57;100098.53;5014531;28;20457;-82
2022/01/27 01:36:15;;;;;;;23.80;11.43;;;;;;;1.62;77.52;100045.63;5013658;28;20868;-81
2022/01/27 01:38:43;;;;;;;31.47;12.47;;;;;;;1.57;77.06;100009.44;5014258;28;20429;-81
2022/01/27 01:41:09;;;;;;;27.43;12.07;;;;;;;0.60;76.15;99827.91;5014661;28;20422;-81
2022/01/27 01:43:35;;;;;;;17.87;8.83;;;;;;;1.80;76.35;100033.91;5015243;28;20492;-81
2022/01/27 01:46:01;;;;;;;24.87;11.40;;;;;;;1.79;76.58;100075.47;5013145;28;20500;-81
2022/01/27 01:48:26;;;;;;;27.07;12.57;;;;;;;0.37;76.64;99798.47;5014933;28;20170;-81
2022/01/27 01:50:52;;;;;;;23.80;10.37;;;;;;;1.22;76.90;99974.63;5014662;28;20195;-81
2022/01/27 01:53:17;;;;;;;19.43;8.60;;;;;;;1.29;78.13;99982.81;5014830;28;20166;-82
2022/01/27 01:55:43;;;;;;;23.13;10.90;;;;;;;1.63;77.46;100041.53;5014671;28;20166;-82
2022/01/27 01:58:09;;;;;;;18.60;9.47;;;;;;;0.29;77.75;99798.53;5014599;28;20177;-81
2022/01/27 02:00:34;;;;;;;21.00;9.27;;;;;;;1.88;78.22;100100.38;5014845;28;20170;-82
2022/01/27 02:03:00;;;;;;;22.60;9.30;;;;;;;0.56;77.65;99840.81;5014797;28;20672;-82
2022/01/27 02:05:32;;;;;;;20.47;9.67;;;;;;;1.91;77.83;100082.28;5015141;28;20156;-82
2022/01/27 02:18:43;;;;;;;18.47;8.70;;;;;;;2.00;77.47;100080.59;5014427;28;20782;-82
2022/01/27 02:21:09;;;;;;;24.57;11.13;;;;;;;0.81;77.95;99886.22;5012987;28;20406;-82
2022/01/27 02:23:34;;;;;;;21.83;10.23;;;;;;;0.97;78.00;99906.78;5014395;28;20225;-82
2022/01/27 02:26:00;;;;;;;24.90;10.70;;;;;;;1.27;78.04;99946.00;5013847;28;20167;-82
2022/01/27 02:28:25;;;;;;;23.93;11.57;;;;;;;2.13;76.88;100081.81;5014051;28;20181;-81
2022/01/27 02:30:50;;;;;;;40.13;17.87;;;;;;;1.43;77.51;99976.56;5013974;28;20217;-82
2022/01/27 02:33:16;;;;;;;44.50;19.03;;;;;;;2.14;77.39;100080.19;5028669;28;20171;-82
2022/01/27 02:35:41;;;;;;;44.43;19.03;;;;;;;1.25;77.58;99923.44;5013492;28;20163;-82
2022/01/27 02:38:07;;;;;;;37.87;18.50;;;;;;;1.99;77.79;100028.91;5013628;28;20167;-81
2022/01/27 02:40:38;;;;;;;35.07;17.20;;;;;;;2.34;77.57;100075.28;5013636;28;20162;-82
2022/01/27 02:43:05;;;;;;;32.50;15.97;;;;;;;2.33;77.29;100073.53;5013627;28;20171;-81
2022/01/27 02:45:58;;;;;;;28.87;14.03;;;;;;;1.65;77.02;99981.03;5013596;28;20410;-82
2022/01/27 02:48:23;;;;;;;27.57;12.13;;;;;;;1.42;76.14;99920.81;5013326;28;20414;-82
2022/01/27 02:50:49;;;;;;;23.20;11.57;;;;;;;2.12;77.15;100072.53;5012667;28;20507;-82
2022/01/27 02:53:14;;;;;;;24.23;11.80;;;;;;;2.24;76.68;100073.63;5013608;28;20170;-82
2022/01/27 02:55:40;;;;;;;27.30;13.13;;;;;;;2.12;75.00;100019.22;5014016;28;20166;-82
2022/01/27 02:58:05;;;;;;;23.57;10.73;;;;;;;2.11;75.74;100078.31;5011568;28;20244;-81
2022/01/27 03:00:33;;;;;;;24.30;10.47;;;;;;;2.16;75.72;100093.66;5013458;28;20173;-82
2022/01/27 03:02:58;;;;;;;22.10;10.50;;;;;;;-1.81;75.40;99388.44;5013381;28;20167;-82
2022/01/27 03:05:24;;;;;;;20.47;9.90;;;;;;;1.79;74.49;99992.22;5012878;28;20405;-82
2022/01/27 03:07:49;;;;;;;19.30;8.90;;;;;;;1.64;74.46;99975.94;5012888;28;20198;-82
2022/01/27 03:10:19;;;;;;;12.73;6.90;;;;;;;2.17;74.32;100066.31;5012726;28;20198;-82
2022/01/27 03:12:46;;;;;;;16.57;7.83;;;;;;;1.32;74.52;99929.84;5012997;28;20166;-82
2022/01/27 03:15:12;;;;;;;18.13;9.47;;;;;;;1.28;74.37;99896.28;5013688;28;20409;-82
2022/01/27 03:17:39;;;;;;;20.83;9.67;;;;;;;2.19;74.19;100044.00;5012283;28;20410;-82
2022/01/27 03:20:06;;;;;;;19.20;9.77;;;;;;;2.31;73.91;100055.03;5013036;28;20166;-82
2022/01/27 03:22:31;;;;;;;18.00;8.83;;;;;;;0.79;73.96;99805.50;5028073;28;20955;-81
2022/01/27 03:24:57;;;;;;;15.10;6.97;;;;;;;1.59;73.41;99928.09;5011141;28;20479;-81
2022/01/27 03:27:25;;;;;;;16.57;7.83;;;;;;;2.36;72.72;100049.66;5012533;28;20170;-81
2022/01/27 03:29:51;;;;;;;16.03;7.90;;;;;;;1.21;73.02;99850.75;5011299;28;20189;-82
2022/01/27 03:32:16;;;;;;;19.17;8.47;;;;;;;2.41;72.71;100060.06;5012888;28;20886;-81
2022/01/27 03:34:42;;;;;;;17.03;8.40;;;;;;;1.68;73.27;99933.91;5013382;28;20317;-82
2022/01/27 03:37:14;;;;;;;20.00;9.20;;;;;;;0.52;72.67;99784.03;5012375;28;20175;-81
2022/01/27 03:39:42;;;;;;;21.63;9.13;;;;;;;0.25;72.38;99687.84;5013731;28;20205;-82
2022/01/27 03:42:08;;;;;;;19.60;9.70;;;;;;;2.31;72.12;100055.03;5013163;28;20913;-82
2022/01/27 03:44:34;;;;;;;20.57;9.77;;;;;;;2.04;72.54;100002.69;5012975;28;20394;-81
2022/01/27 03:47:00;;;;;;;16.53;7.10;;;;;;;1.33;72.04;99885.06;5012293;28;20412;-82
2022/01/27 03:49:26;;;;;;;16.60;8.53;;;;;;;2.40;71.57;100055.81;5014154;28;20917;-81
2022/01/27 03:51:51;;;;;;;15.97;8.37;;;;;;;1.65;71.53;99927.75;5014571;28;20191;-81
2022/01/27 03:54:17;;;;;;;13.47;6.57;;;;;;;2.33;71.55;100058.56;5019039;28;20173;-82
2022/01/27 03:56:43;;;;;;;15.90;6.93;;;;;;;0.92;70.73;99813.28;5013939;28;20170;-81
2022/01/27 03:59:09;;;;;;;16.20;8.13;;;;;;;1.35;70.45;99893.56;5012701;28;20194;-82
2022/01/27 04:01:35;;;;;;;16.50;7.93;;;;;;;1.34;70.54;99889.34;5013561;28;20239;-81
2022/01/27 04:04:01;;;;;;;16.80;9.27;;;;;;;2.39;70.38;100034.94;5013371;28;20230;-81
2022/01/27 04:06:36;;;;;;;25.47;12.50;;;;;;;1.69;70.61;99912.31;5015144;28;20418;-81
2022/01/27 04:09:06;;;;;;;28.23;13.63;;;;;;;1.98;71.07;99964.75;5012426;28;20158;-81
2022/01/27 04:11:32;;;;;;;24.57;11.70;;;;;;;2.63;71.82;100078.66;5013415;28;20529;-82
2022/01/27 04:13:58;;;;;;;25.33;12.37;;;;;;;2.63;71.79;100080.28;5012616;28;20437;-82
2022/01/27 04:16:24;;;;;;;27.07;12.60;;;;;;;1.00;72.66;99822.31;5012405;28;20417;-82
2022/01/27 04:18:50;;;;;;;34.50;15.43;;;;;;;2.52;72.56;100084.34;5013120;28;20402;-82
2022/01/27 04:21:15;;;;;;;33.83;15.80;;;;;;;2.37;72.40;100076.41;5012785;28;20522;-81
2022/01/27 04:23:42;;;;;;;31.37;15.10;;;;;;;2.51;71.65;100087.59;5011865;28;20621;-82
2022/01/27 04:26:08;;;;;;;36.03;15.60;;;;;;;1.66;70.55;99932.03;5011907;28;20163;-83
2022/01/27 04:28:36;;;;;;;40.20;17.37;;;;;;;2.63;69.90;100097.78;5013070;28;20787;-81
2022/01/27 04:31:05;;;;;;;32.50;14.40;;;;;;;2.57;70.16;100100.63;5015148;28;20453;-82
2022/01/27 04:33:32;;;;;;;36.57;14.77;;;;;;;2.20;69.25;100011.63;5015021;28;20473;-83
2022/01/27 04:36:01;;;;;;;33.77;14.93;;;;;;;2.55;68.32;100064.63;5012543;28;20402;-82
2022/01/27 04:38:33;;;;;;;30.43;15.07;;;;;;;1.99;68.68;99981.47;5015342;28;20402;-81
2022/01/27 04:43:48;;;;;;;33.33;13.93;;;;;;;1.98;69.01;100003.06;5014759;28;20509;-81
2022/01/27 04:48:44;;;;;;;78.17;30.10;;;;;;;2.24;70.45;100092.72;5014796;28;20448;-81
2022/01/27 04:51:13;;;;;;;56.60;26.23;;;;;;;2.47;69.96;100105.59;5013528;28;20219;-82
2022/01/27 04:53:45;;;;;;;36.87;18.37;;;;;;;2.05;69.67;100045.31;5011624;28;20413;-82
2022/01/27 04:56:13;;;;;;;43.07;20.87;;;;;;;2.61;69.10;100125.09;5012547;28;20488;-81
2022/01/27 04:58:41;;;;;;;47.43;22.87;;;;;;;1.49;68.92;99919.69;5011618;28;20409;-82
2022/01/27 05:01:07;;;;;;;40.53;18.93;;;;;;;1.84;69.05;99991.00;5012618;28;20406;-82
2022/01/27 05:03:50;;;;;;;56.33;24.67;;;;;;;-0.67;69.08;99575.97;5010850;28;20555;-82
2022/01/27 05:06:15;;;;;;;32.47;15.87;;;;;;;2.05;69.52;100040.31;5012337;28;20166;-82
2022/01/27 05:08:42;;;;;;;46.43;19.17;;;;;;;2.63;70.28;100130.25;5012121;28;20400;-82
2022/01/27 05:11:22;;;;;;;57.23;24.73;;;;;;;2.09;70.72;100058.91;5011775;28;20195;-82
2022/01/27 05:16:40;;;;;;;61.57;25.03;;;;;;;2.53;71.82;100142.72;4993417;28;20442;-82
2022/01/27 05:19:06;;;;;;;52.97;21.73;;;;;;;2.61;70.68;100141.75;4993511;28;20426;-82
2022/01/27 05:21:35;;;;;;;53.40;24.00;;;;;;;1.02;71.16;99871.53;4993944;28;20421;-82
2022/01/27 05:24:02;;;;;;;65.50;29.10;;;;;;;2.30;71.27;100090.75;4993444;28;20199;-82
2022/01/27 05:26:28;;;;;;;81.17;34.00;;;;;;;2.71;71.54;100149.28;4993659;28;20467;-82
2022/01/27 05:28:54;;;;;;;65.30;30.63;;;;;;;2.49;71.35;100101.59;4993986;28;20410;-82
2022/01/27 05:31:19;;;;;;;60.00;29.70;;;;;;;1.86;71.30;100002.00;4993273;28;20461;-82
2022/01/27 05:33:45;;;;;;;56.47;27.23;;;;;;;2.68;71.17;100144.91;4993070;28;20245;-82
2022/01/27 05:36:12;;;;;;;62.87;29.50;;;;;;;1.97;72.00;100048.75;4993299;28;20176;-82
2022/01/27 05:38:46;;;;;;;62.37;29.60;;;;;;;2.60;71.91;100148.38;4993477;28;20737;-82
2022/01/27 05:41:14;;;;;;;44.73;22.43;;;;;;;2.55;71.63;100152.09;4993395;28;20422;-82
2022/01/27 05:43:40;;;;;;;39.30;21.30;;;;;;;2.27;71.74;100113.84;4993403;28;20536;-82
2022/01/27 05:46:05;;;;;;;54.40;26.27;;;;;;;2.45;72.31;100118.66;4993569;28;20426;-82
2022/01/27 05:48:31;;;;;;;81.83;33.63;;;;;;;1.75;71.55;100002.69;4993141;28;20159;-82
2022/01/27 05:50:57;;;;;;;67.70;29.50;;;;;;;2.03;72.36;100049.28;4992909;28;20282;-81
2022/01/27 05:53:23;;;;;;;61.13;31.60;;;;;;;0.93;71.67;99849.94;5003592;28;20183;-83
2022/01/27 05:55:49;;;;;;;64.00;33.40;;;;;;;2.66;71.77;100161.41;5014210;28;20245;-81
2022/01/27 05:58:14;;;;;;;109.33;46.63;;;;;;;2.60;72.57;100170.88;5014728;28;20898;-82
2022/01/27 06:00:40;;;;;;;51.00;25.77;;;;;;;2.33;71.42;100119.34;5014982;28;20623;-81
2022/01/27 06:03:05;;;;;;;40.60;19.70;;;;;;;2.13;71.23;100104.28;5014838;28;20539;-82
2022/01/27 06:05:30;;;;;;;56.30;29.53;;;;;;;2.61;70.70;100174.25;5014744;28;20171;-82
2022/01/27 06:07:56;;;;;;;30.67;17.87;;;;;;;2.47;71.61;100178.03;5015061;28;20169;-81
2022/01/27 06:10:21;;;;;;;24.63;12.00;;;;;;;2.04;70.80;100110.94;5014354;28;20187;-82
2022/01/27 06:12:56;;;;;;;20.70;10.43;;;;;;;1.61;71.26;100028.94;5016688;28;20197;-81
2022/01/27 06:15:25;;;;;;;29.30;13.73;;;;;;;2.19;71.48;100128.91;5016669;28;20162;-82
2022/01/27 06:17:51;;;;;;;22.33;11.93;;;;;;;2.53;71.51;100173.56;5014698;28;20972;-83
2022/01/27 06:20:18;;;;;;;23.83;13.30;;;;;;;-0.74;70.39;99634.91;5012547;28;20549;-85
2022/01/27 06:22:44;;;;;;;23.17;10.93;;;;;;;2.00;70.69;100103.06;5013796;28;20401;-82
2022/01/27 06:25:12;;;;;;;25.70;12.13;;;;;;;2.00;69.89;100101.44;5013978;28;20405;-82
2022/01/27 06:27:37;;;;;;;28.27;13.77;;;;;;;2.55;69.79;100182.09;5014322;28;20217;-82
2022/01/27 06:30:05;;;;;;;46.70;20.03;;;;;;;2.38;69.49;100182.22;5014685;28;20509;-82
2022/01/27 06:32:32;;;;;;;68.07;28.37;;;;;;;2.37;68.20;100150.47;5014223;28;20181;-82
2022/01/27 06:34:57;;;;;;;32.63;15.13;;;;;;;1.12;67.88;99948.03;5014268;28;20500;-83
2022/01/27 06:37:23;;;;;;;30.40;13.30;;;;;;;1.31;66.56;99958.88;5014055;28;20492;-82
2022/01/27 06:39:49;;;;;;;31.80;12.07;;;;;;;1.01;66.36;99898.84;5014074;28;20173;-82
2022/01/27 06:42:14;;;;;;;50.50;20.63;;;;;;;1.74;65.82;99994.31;5013582;28;20558;-82
2022/01/27 06:44:39;;;;;;;45.60;20.70;;;;;;;1.32;65.64;99933.19;5013433;28;20182;-82
2022/01/27 06:47:05;;;;;;;26.97;12.30;;;;;;;0.92;66.14;99865.63;5011366;28;20234;-82
2022/01/27 06:49:31;;;;;;;32.50;13.80;;;;;;;2.48;66.30;100159.78;5028580;28;20677;-81
2022/01/27 06:51:56;;;;;;;28.17;11.30;;;;;;;0.14;66.92;99777.25;5013509;28;20190;-82
2022/01/27 06:54:22;;;;;;;20.40;10.70;;;;;;;0.66;66.52;99854.97;5013446;28;20560;-81
2022/01/27 06:56:47;;;;;;;43.73;19.33;;;;;;;0.45;66.08;99800.03;5011354;28;20226;-82
2022/01/27 06:59:13;;;;;;;72.20;32.50;;;;;;;1.92;65.71;100029.13;5012063;28;20174;-82
2022/01/27 07:01:39;;;;;;;41.50;18.80;;;;;;;2.59;65.13;100144.09;5007958;28;20537;-82
2022/01/27 07:04:05;;;;;;;53.03;23.13;;;;;;;2.32;63.70;100056.78;5007583;28;20500;-82
2022/01/27 07:06:32;;;;;;;58.33;27.60;;;;;;;1.62;63.27;99903.44;5011392;28;20173;-82
2022/01/27 07:08:57;;;;;;;37.87;17.93;;;;;;;2.80;63.89;100115.94;5012658;28;20206;-83
2022/01/27 07:11:23;;;;;;;25.90;13.17;;;;;;;0.08;63.46;99683.00;5011581;28;20897;-82
2022/01/27 07:13:48;;;;;;;25.30;11.77;;;;;;;1.66;63.92;99925.41;5011942;28;20181;-83
2022/01/27 07:16:13;;;;;;;33.63;17.23;;;;;;;0.57;63.72;99738.84;5012554;28;20247;-82
2022/01/27 07:18:39;;;;;;;69.33;29.67;;;;;;;2.63;63.87;100095.28;5010564;28;20182;-83
2022/01/27 07:21:05;;;;;;;71.97;31.20;;;;;;;1.81;64.05;99920.00;5012167;28;20186;-83
2022/01/27 07:23:33;;;;;;;62.20;28.13;;;;;;;3.61;64.26;100206.22;5010113;28;20202;-84
2022/01/27 07:25:58;;;;;;;53.07;25.80;;;;;;;2.93;63.97;100073.75;5012036;28;20402;-83
2022/01/27 07:28:24;;;;;;;50.03;26.57;;;;;;;3.26;63.58;100132.31;5011965;28;20995;-83
2022/01/27 07:30:49;;;;;;;58.67;28.30;;;;;;;3.27;63.95;100147.44;5011914;28;20235;-83
2022/01/27 07:33:15;;;;;;;64.90;29.90;;;;;;;2.89;62.97;100086.72;5012035;28;20178;-82
2022/01/27 07:35:41;;;;;;;36.13;15.63;;;;;;;2.56;62.45;99976.41;5012019;28;20186;-82
2022/01/27 07:38:07;;;;;;;55.90;22.40;;;;;;;3.91;63.87;100215.38;5011667;28;20178;-83
2022/01/27 07:40:33;;;;;;;35.13;15.83;;;;;;;2.68;63.93;100044.94;5012105;28;20247;-83
2022/01/27 07:42:59;;;;;;;59.17;26.53;;;;;;;2.40;63.16;99928.41;5010813;28;21018;-82
2022/01/27 07:45:24;;;;;;;38.90;15.93;;;;;;;0.66;62.83;99678.13;5012448;28;20459;-82
2022/01/27 07:47:50;;;;;;;35.90;15.83;;;;;;;3.03;63.78;100092.00;5005605;28;20253;-83
2022/01/27 07:50:15;;;;;;;45.60;21.90;;;;;;;1.32;63.59;99835.09;5009141;28;20200;-82
2022/01/27 07:52:44;;;;;;;58.57;27.10;;;;;;;2.61;63.73;100015.16;4992954;28;20179;-83
2022/01/27 07:55:10;;;;;;;39.63;18.03;;;;;;;3.78;63.27;100222.63;4994597;28;20204;-82
2022/01/27 07:57:36;;;;;;;61.93;26.33;;;;;;;2.44;63.03;99982.88;5011911;28;20910;-82
2022/01/27 08:00:04;;;;;;;44.67;20.87;;;;;;;2.03;63.16;99946.03;5014231;28;20424;-82
2022/01/27 08:02:30;;;;;;;48.90;23.87;;;;;;;2.17;63.17;99995.53;5012062;28;20425;-82
2022/01/27 08:04:55;;;;;;;33.20;16.10;;;;;;;2.59;63.29;100023.25;5011917;28;20401;-83
2022/01/27 08:07:20;;;;;;;34.27;19.80;;;;;;;3.85;63.45;100233.28;5011534;28;20229;-82
2022/01/27 08:09:48;;;;;;;26.77;14.93;;;;;;;0.88;62.41;99721.59;4992867;28;20264;-82
2022/01/27 08:12:14;;;;;;;31.03;16.47;;;;;;;3.85;62.62;100233.28;5012496;28;20163;-82
2022/01/27 08:14:40;;;;;;;21.67;11.00;;;;;;;3.43;63.63;100179.66;5011224;28;20439;-81
2022/01/27 08:17:05;;;;;;;16.20;8.50;;;;;;;1.59;63.16;99909.78;5012599;28;20414;-83
2022/01/27 08:19:30;;;;;;;21.20;10.60;;;;;;;3.64;64.12;100264.06;5012268;28;20238;-82
2022/01/27 08:21:56;;;;;;;19.23;9.97;;;;;;;2.94;63.55;100135.50;4994591;28;20174;-82
2022/01/27 08:24:21;;;;;;;23.17;10.97;;;;;;;2.02;63.09;99964.25;5012375;28;20733;-82
2022/01/27 08:26:49;;;;;;;21.10;11.70;;;;;;;2.72;64.00;100084.41;5012481;28;20202;-81
2022/01/27 08:29:30;;;;;;;17.83;8.50;;;;;;;1.21;63.31;99804.22;5012395;28;20581;-82
2022/01/27 08:34:42;;;;;;;20.37;9.53;;;;;;;4.04;61.89;100248.19;5012331;28;20472;-82
2022/01/27 08:37:09;;;;;;;16.73;8.47;;;;;;;3.83;60.96;100243.91;5011946;28;20190;-82
2022/01/27 08:39:35;;;;;;;23.93;11.43;;;;;;;3.90;61.40;100257.06;5011723;28;20910;-82
2022/01/27 08:42:01;;;;;;;14.97;7.83;;;;;;;3.30;62.26;100149.34;5021540;28;20428;-82
2022/01/27 08:44:27;;;;;;;12.80;7.57;;;;;;;3.80;62.51;100252.06;5015032;28;20753;-82
2022/01/27 08:46:52;;;;;;;12.97;6.27;;;;;;;1.64;61.21;99844.56;5006820;28;20371;-83
2022/01/27 08:49:20;;;;;;;18.63;10.27;;;;;;;2.88;62.10;100042.44;5032642;28;20177;-83
2022/01/27 08:51:45;;;;;;;22.67;10.17;;;;;;;2.35;59.60;99894.69;5034377;28;20198;-83
2022/01/27 08:54:11;;;;;;;11.77;5.83;;;;;;;2.61;60.00;99912.69;5035391;28;20415;-83
2022/01/27 08:56:37;;;;;;;27.10;12.27;;;;;;;4.23;59.91;100133.69;5035511;28;20527;-83
2022/01/27 08:59:02;;;;;;;16.73;8.73;;;;;;;4.41;59.59;100171.88;5017360;28;20178;-82
2022/01/27 09:01:28;;;;;;;13.97;8.80;;;;;;;4.62;61.85;100266.34;5034628;28;20193;-82
2022/01/27 09:03:54;;;;;;;28.53;13.63;;;;;;;4.93;61.90;100275.56;5034131;28;20618;-82
2022/01/27 09:06:20;;;;;;;24.50;13.63;;;;;;;4.64;61.52;100239.78;5016605;28;20170;-82
2022/01/27 09:08:46;;;;;;;27.27;13.97;;;;;;;5.00;60.46;100257.72;5016694;28;20438;-83
2022/01/27 09:11:12;;;;;;;79.07;30.43;;;;;;;2.15;59.96;99724.81;5033978;28;20281;-83
2022/01/27 09:13:38;;;;;;;34.23;13.07;;;;;;;2.99;58.64;99898.34;5034384;28;20474;-82
2022/01/27 09:16:07;;;;;;;16.23;8.07;;;;;;;2.29;60.75;99802.63;5034783;28;20172;-83
2022/01/27 09:18:33;;;;;;;21.73;10.33;;;;;;;3.52;61.49;100030.22;5034210;28;20176;-82
2022/01/27 09:21:01;;;;;;;38.13;17.80;;;;;;;3.88;60.39;100013.16;5034782;28;20412;-82
2022/01/27 09:23:27;;;;;;;37.70;20.17;;;;;;;5.18;60.49;100244.13;5028215;28;20181;-83
2022/01/27 09:26:00;;;;;;;21.17;12.37;;;;;;;3.23;60.81;99930.31;5033189;28;20503;-83
2022/01/27 09:28:26;;;;;;;25.23;15.20;;;;;;;4.22;60.05;100033.34;5032662;28;20202;-83
2022/01/27 09:30:51;;;;;;;15.63;9.43;;;;;;;5.14;58.44;100170.97;5033228;28;20502;-84
2022/01/27 09:33:17;;;;;;;17.90;10.73;;;;;;;2.86;58.81;99766.44;5016053;28;20265;-83
2022/01/27 09:35:42;;;;;;;15.57;9.30;;;;;;;5.49;58.83;100243.97;5033808;28;20182;-82
2022/01/27 09:38:08;;;;;;;11.70;6.73;;;;;;;2.23;58.57;99738.81;5034108;28;20193;-83
2022/01/27 09:40:34;;;;;;;25.90;12.30;;;;;;;4.15;58.79;100040.38;5034421;28;20541;-83
2022/01/27 09:43:02;;;;;;;48.67;23.83;;;;;;;5.48;56.92;100105.00;5034114;28;20162;-83
2022/01/27 09:45:29;;;;;;;18.10;10.13;;;;;;;3.18;56.57;99743.09;5033384;28;20428;-81
2022/01/27 09:47:59;;;;;;;20.63;10.23;;;;;;;5.47;57.13;100160.09;5024227;28;20456;-82
2022/01/27 09:52:53;;;;;;;16.77;9.03;;;;;;;5.29;58.35;100188.09;5033974;28;20912;-83
2022/01/27 09:55:18;;;;;;;19.77;9.07;;;;;;;4.89;58.06;100097.97;5032546;28;20550;-82
2022/01/27 09:57:46;;;;;;;25.17;13.27;;;;;;;4.82;57.89;100063.16;5033582;28;20454;-81
2022/01/27 10:00:12;;;;;;;20.37;10.07;;;;;;;5.34;56.70;100093.94;5032380;28;20198;-82
2022/01/27 10:02:39;;;;;;;15.90;8.60;;;;;;;4.32;55.98;99887.94;5032934;28;20522;-83
2022/01/27 10:05:05;;;;;;;16.40;8.03;;;;;;;5.76;56.94;100199.22;5032959;28;20420;-80
2022/01/27 10:07:41;;;;;;;21.63;12.10;;;;;;;5.69;57.80;100204.53;5033230;28;20412;-81
2022/01/27 10:10:13;;;;;;;23.10;11.90;;;;;;;4.80;57.42;100044.59;5030974;28;20806;-81
2022/01/27 10:12:43;;;;;;;13.03;6.77;;;;;;;5.60;57.89;100192.94;5014413;28;20424;-82
2022/01/27 10:15:14;;;;;;;27.93;13.00;;;;;;;5.21;57.66;100113.84;5033419;28;20436;-83
2022/01/27 10:18:05;;;;;;;28.67;14.73;;;;;;;5.32;57.61;100092.06;5004757;28;20436;-82
2022/01/27 10:20:31;;;;;;;40.73;18.60;;;;;;;6.03;56.81;100192.91;4968917;28;20431;-82
2022/01/27 10:23:19;;;;;;;35.53;17.80;;;;;;;5.45;57.58;100141.53;4955066;28;20443;-81
2022/01/27 10:25:53;;;;;;;19.73;10.87;;;;;;;6.15;56.67;100176.22;4971350;28;20731;-83
2022/01/27 10:28:42;;;;;;;29.33;13.90;;;;;;;5.83;57.27;100177.94;4954093;28;20482;-82
2022/01/27 10:31:24;;;;;;;14.07;8.13;;;;;;;5.25;59.33;100176.06;4971291;28;20477;-82
2022/01/27 10:33:51;;;;;;;13.93;7.70;;;;;;;4.42;60.04;100031.59;4972470;28;20478;-83
2022/01/27 10:36:19;;;;;;;23.03;13.33;;;;;;;5.29;60.06;100165.50;4973372;28;20966;-82
2022/01/27 10:38:45;;;;;;;20.20;11.87;;;;;;;5.13;60.03;100098.97;4970758;28;20477;-83
2022/01/27 10:41:11;;;;;;;22.07;13.60;;;;;;;3.88;60.21;99909.59;4970809;28;20854;-81
2022/01/27 10:43:36;;;;;;;15.23;7.93;;;;;;;4.35;60.17;100023.50;4971097;28;20176;-82
2022/01/27 10:46:07;;;;;;;19.80;11.13;;;;;;;4.78;60.96;100070.34;4964900;28;20247;-82
2022/01/27 10:48:35;;;;;;;19.47;12.03;;;;;;;4.62;60.05;100035.66;4974577;28;20759;-83
2022/01/27 10:51:14;;;;;;;19.20;10.00;;;;;;;4.91;60.90;100124.06;4990761;28;20473;-81
2022/01/27 10:56:31;;;;;;;22.67;12.07;;;;;;;4.68;61.27;100047.03;4997208;28;20422;-85
2022/01/27 10:58:58;;;;;;;24.00;13.27;;;;;;;5.32;60.73;100154.81;5010484;28;20429;-81
2022/01/27 11:01:30;;;;;;;17.80;11.47;;;;;;;4.71;60.78;100066.47;5008350;28;20529;-81
2022/01/27 11:04:00;;;;;;;25.03;14.73;;;;;;;5.48;60.27;100145.19;5011853;28;20438;-82
2022/01/27 11:06:27;;;;;;;54.67;27.67;;;;;;;5.25;59.13;100012.91;5012410;28;20982;-82
2022/01/27 11:08:58;;;;;;;36.33;19.47;;;;;;;5.00;58.17;99976.72;5005709;28;20449;-82
2022/01/27 11:11:26;;;;;;;15.57;9.50;;;;;;;5.75;58.40;100131.28;5029702;28;20467;-81
2022/01/27 11:13:54;;;;;;;13.33;7.30;;;;;;;5.48;57.25;100139.28;4995217;28;20418;-81
2022/01/27 11:16:26;;;;;;;24.43;12.50;;;;;;;5.20;57.70;100046.84;5015433;28;20432;-82
2022/01/27 11:18:56;;;;;;;17.37;8.87;;;;;;;5.39;57.69;100086.72;5027837;28;20942;-82
2022/01/27 11:21:31;;;;;;;13.17;7.13;;;;;;;5.12;57.63;100044.50;4996774;28;20432;-82
2022/01/27 11:24:05;;;;;;;20.53;10.90;;;;;;;4.60;58.84;99987.03;5005470;28;20459;-82
2022/01/27 11:26:33;;;;;;;23.17;13.07;;;;;;;3.86;58.75;99819.34;4994601;28;20508;-82
2022/01/27 11:28:59;;;;;;;18.10;10.40;;;;;;;2.92;58.02;99681.06;5012231;28;20417;-82
2022/01/27 11:31:39;;;;;;;24.27;14.40;;;;;;;5.72;57.48;100118.47;5002921;28;20456;-83
2022/01/27 11:34:08;;;;;;;29.67;14.63;;;;;;;4.47;56.23;99828.94;5027195;28;20218;-83
2022/01/27 11:36:34;;;;;;;37.83;18.90;;;;;;;6.30;55.53;100121.13;4995526;28;20424;-82
2022/01/27 11:39:01;;;;;;;34.63;18.60;;;;;;;6.23;55.56;100114.78;4995013;28;20429;-82
2022/01/27 11:41:37;;;;;;;13.93;8.83;;;;;;;5.99;56.54;100117.19;5011643;28;20440;-82
2022/01/27 11:44:24;;;;;;;15.63;9.97;;;;;;;5.82;57.09;100118.41;5012373;28;20433;-82
2022/01/27 11:47:11;;;;;;;30.80;18.33;;;;;;;6.15;56.83;100105.84;5001519;28;20406;-81
2022/01/27 11:50:22;;;;;;;21.53;11.50;;;;;;;6.18;56.26;100106.03;5011250;28;20436;-82
2022/01/27 11:52:53;;;;;;;22.77;12.17;;;;;;;5.72;56.39;100055.69;5008745;28;20412;-81
2022/01/27 11:55:24;;;;;;;22.97;13.83;;;;;;;6.22;55.85;100108.00;5009858;28;20795;-82
2022/01/27 11:57:57;;;;;;;33.73;15.07;;;;;;;4.96;55.61;99835.91;5011453;28;20910;-81
2022/01/27 12:00:26;;;;;;;204.63;62.60;;;;;;;6.46;54.19;100069.50;4993524;28;20495;-81
2022/01/27 12:03:00;;;;;;;52.90;20.30;;;;;;;6.18;54.47;100083.41;5010187;28;20397;-81
2022/01/27 12:05:28;;;;;;;138.63;41.80;;;;;;;6.28;55.14;100078.28;5008650;28;20445;-83
2022/01/27 12:08:08;;;;;;;182.57;49.40;;;;;;;6.75;53.61;100078.22;5010870;28;20468;-82
2022/01/27 12:10:46;;;;;;;26.70;15.53;;;;;;;6.70;52.15;100077.91;5004473;28;20560;-82
2022/01/27 12:13:24;;;;;;;21.50;13.90;;;;;;;6.47;53.19;100077.94;5025610;28;20513;-81